sensor_id;sensor_type;location;lat;lon;timestamp;P1;durP1;ratioP1;P2;durP2;ratioP2
46216;SDS011;47258;59.424;13.482;2023-08-21T00:01:00;14.80;;;5.78;;
46216;SDS011;47258;59.424;13.482;2023-08-21T00:04:00;16.00;;;6.35;;
46216;SDS011;47258;59.424;13.482;2023-08-21T00:06:49;24.63;;;6.75;;
46216;SDS011;47258;59.424;13.482;2023-08-21T00:09:37;19.70;;;8.13;;
46216;SDS011;47258;59.424;13.482;2023-08-21T00:12:28;16.92;;;7.03;;
46216;SDS011;47258;59.424;13.482;2023-08-21T00:15:08;10.18;;;6.55;;
46216;SDS011;47258;59.424;13.482;2023-08-21T00:17:46;9.18;;;5.45;;
46216;SDS011;47258;59.424;13.482;2023-08-21T00:20:31;13.15;;;7.50;;
46216;SDS011;47258;59.424;13.482;2023-08-21T00:23:26;13.30;;;7.80;;
46216;SDS011;47258;59.424;13.482;2023-08-21T00:26:25;12.60;;;7.63;;
46216;SDS011;47258;59.424;13.482;2023-08-21T00:29:17;21.83;;;8.18;;
46216;SDS011;47258;59.424;13.482;2023-08-21T00:32:16;14.80;;;8.57;;
46216;SDS011;47258;59.424;13.482;2023-08-21T00:35:00;18.10;;;8.90;;
46216;SDS011;47258;59.424;13.482;2023-08-21T00:37:57;17.15;;;8.93;;
46216;SDS011;47258;59.424;13.482;2023-08-21T00:40:35;20.13;;;9.00;;
46216;SDS011;47258;59.424;13.482;2023-08-21T00:43:21;20.85;;;8.40;;
46216;SDS011;47258;59.424;13.482;2023-08-21T00:46:14;20.63;;;8.40;;
46216;SDS011;47258;59.424;13.482;2023-08-21T00:49:09;17.95;;;8.38;;
46216;SDS011;47258;59.424;13.482;2023-08-21T00:52:08;20.58;;;7.78;;
46216;SDS011;47258;59.424;13.482;2023-08-21T00:58:25;18.65;;;7.80;;
46216;SDS011;47258;59.424;13.482;2023-08-21T01:01:20;25.88;;;8.52;;
46216;SDS011;47258;59.424;13.482;2023-08-21T01:04:02;18.50;;;7.38;;
46216;SDS011;47258;59.424;13.482;2023-08-21T01:06:58;19.30;;;7.80;;
46216;SDS011;47258;59.424;13.482;2023-08-21T01:10:11;16.42;;;8.43;;
46216;SDS011;47258;59.424;13.482;2023-08-21T01:13:16;13.57;;;7.03;;
46216;SDS011;47258;59.424;13.482;2023-08-21T01:16:06;19.63;;;8.38;;
46216;SDS011;47258;59.424;13.482;2023-08-21T01:18:58;21.85;;;10.40;;
46216;SDS011;47258;59.424;13.482;2023-08-21T01:21:48;27.30;;;9.70;;
46216;SDS011;47258;59.424;13.482;2023-08-21T01:25:03;22.67;;;9.10;;
46216;SDS011;47258;59.424;13.482;2023-08-21T01:28:00;20.70;;;8.45;;
46216;SDS011;47258;59.424;13.482;2023-08-21T01:30:38;15.25;;;8.60;;
46216;SDS011;47258;59.424;13.482;2023-08-21T01:33:21;32.03;;;9.68;;
46216;SDS011;47258;59.424;13.482;2023-08-21T01:36:01;20.15;;;8.95;;
46216;SDS011;47258;59.424;13.482;2023-08-21T01:38:47;17.63;;;8.93;;
46216;SDS011;47258;59.424;13.482;2023-08-21T01:41:32;18.65;;;9.07;;
46216;SDS011;47258;59.424;13.482;2023-08-21T01:46:52;16.05;;;7.15;;
46216;SDS011;47258;59.424;13.482;2023-08-21T01:49:33;20.05;;;9.23;;
46216;SDS011;47258;59.424;13.482;2023-08-21T01:52:13;12.77;;;8.60;;
46216;SDS011;47258;59.424;13.482;2023-08-21T01:55:01;16.20;;;10.23;;
46216;SDS011;47258;59.424;13.482;2023-08-21T01:57:57;24.73;;;9.35;;
46216;SDS011;47258;59.424;13.482;2023-08-21T02:00:47;19.42;;;10.00;;
46216;SDS011;47258;59.424;13.482;2023-08-21T02:03:42;18.95;;;9.23;;
46216;SDS011;47258;59.424;13.482;2023-08-21T02:06:39;21.55;;;9.23;;
46216;SDS011;47258;59.424;13.482;2023-08-21T02:09:30;18.60;;;9.13;;
46216;SDS011;47258;59.424;13.482;2023-08-21T02:12:32;19.42;;;10.10;;
46216;SDS011;47258;59.424;13.482;2023-08-21T02:15:33;16.60;;;9.43;;
46216;SDS011;47258;59.424;13.482;2023-08-21T02:18:40;19.02;;;9.05;;
46216;SDS011;47258;59.424;13.482;2023-08-21T02:21:35;19.33;;;10.73;;
46216;SDS011;47258;59.424;13.482;2023-08-21T02:24:21;21.98;;;10.13;;
46216;SDS011;47258;59.424;13.482;2023-08-21T02:27:16;27.70;;;10.80;;
46216;SDS011;47258;59.424;13.482;2023-08-21T02:30:25;24.50;;;11.77;;
46216;SDS011;47258;59.424;13.482;2023-08-21T02:33:21;23.75;;;10.98;;
46216;SDS011;47258;59.424;13.482;2023-08-21T02:36:14;24.85;;;10.98;;
46216;SDS011;47258;59.424;13.482;2023-08-21T02:39:04;15.38;;;9.45;;
46216;SDS011;47258;59.424;13.482;2023-08-21T02:42:05;23.70;;;10.68;;
46216;SDS011;47258;59.424;13.482;2023-08-21T02:45:00;24.88;;;10.85;;
46216;SDS011;47258;59.424;13.482;2023-08-21T02:48:06;18.40;;;10.20;;
46216;SDS011;47258;59.424;13.482;2023-08-21T02:50:54;23.45;;;10.45;;
46216;SDS011;47258;59.424;13.482;2023-08-21T02:53:49;22.30;;;8.93;;
46216;SDS011;47258;59.424;13.482;2023-08-21T02:56:41;15.73;;;8.60;;
46216;SDS011;47258;59.424;13.482;2023-08-21T02:59:23;22.58;;;8.75;;
46216;SDS011;47258;59.424;13.482;2023-08-21T03:02:15;16.88;;;8.38;;
46216;SDS011;47258;59.424;13.482;2023-08-21T03:05:19;13.60;;;7.40;;
46216;SDS011;47258;59.424;13.482;2023-08-21T03:08:19;16.88;;;8.50;;
46216;SDS011;47258;59.424;13.482;2023-08-21T03:11:14;16.00;;;7.80;;
46216;SDS011;47258;59.424;13.482;2023-08-21T03:14:08;21.70;;;8.13;;
46216;SDS011;47258;59.424;13.482;2023-08-21T03:16:59;10.85;;;7.63;;
46216;SDS011;47258;59.424;13.482;2023-08-21T03:19:32;9.52;;;8.43;;
46216;SDS011;47258;59.424;13.482;2023-08-21T03:22:05;14.75;;;7.80;;
46216;SDS011;47258;59.424;13.482;2023-08-21T03:24:39;19.38;;;9.07;;
46216;SDS011;47258;59.424;13.482;2023-08-21T03:27:17;21.00;;;9.77;;
46216;SDS011;47258;59.424;13.482;2023-08-21T03:29:58;26.58;;;9.63;;
46216;SDS011;47258;59.424;13.482;2023-08-21T03:32:54;22.88;;;9.27;;
46216;SDS011;47258;59.424;13.482;2023-08-21T03:35:42;17.00;;;9.25;;
46216;SDS011;47258;59.424;13.482;2023-08-21T03:38:36;14.82;;;8.27;;
46216;SDS011;47258;59.424;13.482;2023-08-21T03:41:14;18.92;;;8.48;;
46216;SDS011;47258;59.424;13.482;2023-08-21T03:43:58;18.27;;;8.80;;
46216;SDS011;47258;59.424;13.482;2023-08-21T03:46:40;23.63;;;9.60;;
46216;SDS011;47258;59.424;13.482;2023-08-21T03:49:22;16.05;;;8.65;;
46216;SDS011;47258;59.424;13.482;2023-08-21T03:52:07;18.08;;;7.85;;
46216;SDS011;47258;59.424;13.482;2023-08-21T03:55:02;16.88;;;7.82;;
46216;SDS011;47258;59.424;13.482;2023-08-21T03:57:52;24.33;;;8.75;;
46216;SDS011;47258;59.424;13.482;2023-08-21T04:00:48;20.38;;;7.75;;
46216;SDS011;47258;59.424;13.482;2023-08-21T04:03:30;15.52;;;7.60;;
46216;SDS011;47258;59.424;13.482;2023-08-21T04:06:20;24.10;;;7.32;;
46216;SDS011;47258;59.424;13.482;2023-08-21T04:09:06;18.33;;;6.90;;
46216;SDS011;47258;59.424;13.482;2023-08-21T04:12:08;12.23;;;6.80;;
46216;SDS011;47258;59.424;13.482;2023-08-21T04:14:50;14.43;;;6.43;;
46216;SDS011;47258;59.424;13.482;2023-08-21T04:17:37;9.05;;;6.00;;
46216;SDS011;47258;59.424;13.482;2023-08-21T04:20:31;13.95;;;5.00;;
46216;SDS011;47258;59.424;13.482;2023-08-21T04:23:31;14.38;;;5.90;;
46216;SDS011;47258;59.424;13.482;2023-08-21T04:26:21;10.70;;;5.03;;
46216;SDS011;47258;59.424;13.482;2023-08-21T04:29:15;12.77;;;6.28;;
46216;SDS011;47258;59.424;13.482;2023-08-21T04:34:52;13.82;;;5.32;;
46216;SDS011;47258;59.424;13.482;2023-08-21T04:37:43;15.52;;;6.40;;
46216;SDS011;47258;59.424;13.482;2023-08-21T04:40:28;15.20;;;5.32;;
46216;SDS011;47258;59.424;13.482;2023-08-21T04:43:16;16.85;;;5.65;;
46216;SDS011;47258;59.424;13.482;2023-08-21T04:46:21;15.82;;;5.80;;
46216;SDS011;47258;59.424;13.482;2023-08-21T04:49:08;11.70;;;4.85;;
46216;SDS011;47258;59.424;13.482;2023-08-21T04:51:46;14.63;;;5.55;;
46216;SDS011;47258;59.424;13.482;2023-08-21T04:54:25;15.30;;;5.55;;
46216;SDS011;47258;59.424;13.482;2023-08-21T04:57:01;14.93;;;5.50;;
46216;SDS011;47258;59.424;13.482;2023-08-21T04:59:46;9.10;;;4.57;;
46216;SDS011;47258;59.424;13.482;2023-08-21T05:02:20;15.63;;;5.35;;
46216;SDS011;47258;59.424;13.482;2023-08-21T05:04:57;11.27;;;4.18;;
46216;SDS011;47258;59.424;13.482;2023-08-21T05:07:38;11.40;;;4.40;;
46216;SDS011;47258;59.424;13.482;2023-08-21T05:10:20;8.93;;;4.10;;
46216;SDS011;47258;59.424;13.482;2023-08-21T05:13:05;14.33;;;4.20;;
46216;SDS011;47258;59.424;13.482;2023-08-21T05:15:55;11.20;;;4.55;;
46216;SDS011;47258;59.424;13.482;2023-08-21T05:19:10;12.93;;;4.38;;
46216;SDS011;47258;59.424;13.482;2023-08-21T05:21:54;22.50;;;4.90;;
46216;SDS011;47258;59.424;13.482;2023-08-21T05:24:53;14.00;;;4.32;;
46216;SDS011;47258;59.424;13.482;2023-08-21T05:27:42;13.63;;;4.68;;
46216;SDS011;47258;59.424;13.482;2023-08-21T05:30:45;11.07;;;4.05;;
46216;SDS011;47258;59.424;13.482;2023-08-21T05:33:47;15.15;;;4.18;;
46216;SDS011;47258;59.424;13.482;2023-08-21T05:36:59;16.05;;;5.07;;
46216;SDS011;47258;59.424;13.482;2023-08-21T05:40:03;7.53;;;3.78;;
46216;SDS011;47258;59.424;13.482;2023-08-21T05:43:03;16.52;;;4.65;;
46216;SDS011;47258;59.424;13.482;2023-08-21T05:46:09;12.15;;;5.15;;
46216;SDS011;47258;59.424;13.482;2023-08-21T05:49:06;12.68;;;4.60;;
46216;SDS011;47258;59.424;13.482;2023-08-21T05:52:15;15.45;;;4.65;;
46216;SDS011;47258;59.424;13.482;2023-08-21T05:54:49;16.30;;;5.43;;
46216;SDS011;47258;59.424;13.482;2023-08-21T05:57:23;11.45;;;3.20;;
46216;SDS011;47258;59.424;13.482;2023-08-21T05:59:57;13.05;;;4.43;;
46216;SDS011;47258;59.424;13.482;2023-08-21T06:02:28;17.38;;;4.72;;
46216;SDS011;47258;59.424;13.482;2023-08-21T06:05:06;9.73;;;3.50;;
46216;SDS011;47258;59.424;13.482;2023-08-21T06:07:52;15.40;;;4.38;;
46216;SDS011;47258;59.424;13.482;2023-08-21T06:10:21;16.00;;;3.55;;
46216;SDS011;47258;59.424;13.482;2023-08-21T06:12:54;15.10;;;5.30;;
46216;SDS011;47258;59.424;13.482;2023-08-21T06:15:30;9.70;;;4.43;;
46216;SDS011;47258;59.424;13.482;2023-08-21T06:18:08;13.15;;;4.20;;
46216;SDS011;47258;59.424;13.482;2023-08-21T06:20:46;12.00;;;4.33;;
46216;SDS011;47258;59.424;13.482;2023-08-21T06:23:30;11.88;;;4.88;;
46216;SDS011;47258;59.424;13.482;2023-08-21T06:26:05;16.02;;;4.72;;
46216;SDS011;47258;59.424;13.482;2023-08-21T06:28:36;10.80;;;3.65;;
46216;SDS011;47258;59.424;13.482;2023-08-21T06:31:14;21.60;;;5.05;;
46216;SDS011;47258;59.424;13.482;2023-08-21T06:33:46;15.95;;;4.38;;
46216;SDS011;47258;59.424;13.482;2023-08-21T06:36:19;16.13;;;4.20;;
46216;SDS011;47258;59.424;13.482;2023-08-21T06:39:05;16.15;;;4.15;;
46216;SDS011;47258;59.424;13.482;2023-08-21T06:41:42;9.23;;;3.53;;
46216;SDS011;47258;59.424;13.482;2023-08-21T06:44:17;14.05;;;4.18;;
46216;SDS011;47258;59.424;13.482;2023-08-21T06:46:57;12.13;;;3.78;;
46216;SDS011;47258;59.424;13.482;2023-08-21T06:49:31;10.02;;;3.53;;
46216;SDS011;47258;59.424;13.482;2023-08-21T06:52:03;15.48;;;4.07;;
46216;SDS011;47258;59.424;13.482;2023-08-21T06:54:43;15.20;;;4.47;;
46216;SDS011;47258;59.424;13.482;2023-08-21T06:57:12;8.20;;;3.38;;
46216;SDS011;47258;59.424;13.482;2023-08-21T06:59:46;13.85;;;4.45;;
46216;SDS011;47258;59.424;13.482;2023-08-21T07:02:18;15.55;;;3.50;;
46216;SDS011;47258;59.424;13.482;2023-08-21T07:04:54;11.63;;;3.35;;
46216;SDS011;47258;59.424;13.482;2023-08-21T07:07:29;11.38;;;3.42;;
46216;SDS011;47258;59.424;13.482;2023-08-21T07:10:03;14.30;;;3.10;;
46216;SDS011;47258;59.424;13.482;2023-08-21T07:12:38;13.65;;;3.80;;
46216;SDS011;47258;59.424;13.482;2023-08-21T07:15:14;12.48;;;3.28;;
46216;SDS011;47258;59.424;13.482;2023-08-21T07:17:47;16.08;;;2.80;;
46216;SDS011;47258;59.424;13.482;2023-08-21T07:20:17;16.25;;;3.28;;
46216;SDS011;47258;59.424;13.482;2023-08-21T07:22:54;10.60;;;3.30;;
46216;SDS011;47258;59.424;13.482;2023-08-21T07:25:28;16.25;;;3.67;;
46216;SDS011;47258;59.424;13.482;2023-08-21T07:27:59;8.55;;;2.30;;
46216;SDS011;47258;59.424;13.482;2023-08-21T07:30:28;10.85;;;2.30;;
46216;SDS011;47258;59.424;13.482;2023-08-21T07:33:03;17.02;;;3.47;;
46216;SDS011;47258;59.424;13.482;2023-08-21T07:35:37;9.85;;;3.47;;
46216;SDS011;47258;59.424;13.482;2023-08-21T07:38:11;9.98;;;2.90;;
46216;SDS011;47258;59.424;13.482;2023-08-21T07:40:49;14.82;;;2.53;;
46216;SDS011;47258;59.424;13.482;2023-08-21T07:43:23;13.70;;;2.63;;
46216;SDS011;47258;59.424;13.482;2023-08-21T07:45:55;3.70;;;1.65;;
46216;SDS011;47258;59.424;13.482;2023-08-21T07:48:29;14.75;;;2.40;;
46216;SDS011;47258;59.424;13.482;2023-08-21T07:51:01;6.18;;;2.38;;
46216;SDS011;47258;59.424;13.482;2023-08-21T07:53:35;7.35;;;2.28;;
46216;SDS011;47258;59.424;13.482;2023-08-21T07:56:11;8.68;;;2.45;;
46216;SDS011;47258;59.424;13.482;2023-08-21T07:58:44;10.25;;;2.85;;
46216;SDS011;47258;59.424;13.482;2023-08-21T08:01:14;5.70;;;2.10;;
46216;SDS011;47258;59.424;13.482;2023-08-21T08:03:45;10.90;;;2.17;;
46216;SDS011;47258;59.424;13.482;2023-08-21T08:06:15;8.10;;;1.65;;
46216;SDS011;47258;59.424;13.482;2023-08-21T08:08:44;13.95;;;2.47;;
46216;SDS011;47258;59.424;13.482;2023-08-21T08:11:18;6.93;;;2.25;;
46216;SDS011;47258;59.424;13.482;2023-08-21T08:13:47;8.57;;;2.63;;
46216;SDS011;47258;59.424;13.482;2023-08-21T08:16:15;5.85;;;2.28;;
46216;SDS011;47258;59.424;13.482;2023-08-21T08:18:46;8.43;;;2.53;;
46216;SDS011;47258;59.424;13.482;2023-08-21T08:21:19;8.88;;;2.45;;
46216;SDS011;47258;59.424;13.482;2023-08-21T08:23:51;3.22;;;1.77;;
46216;SDS011;47258;59.424;13.482;2023-08-21T08:26:24;11.93;;;2.70;;
46216;SDS011;47258;59.424;13.482;2023-08-21T08:28:57;8.73;;;2.65;;
46216;SDS011;47258;59.424;13.482;2023-08-21T08:31:25;7.45;;;2.47;;
46216;SDS011;47258;59.424;13.482;2023-08-21T08:33:54;5.97;;;1.70;;
46216;SDS011;47258;59.424;13.482;2023-08-21T08:36:23;7.25;;;2.40;;
46216;SDS011;47258;59.424;13.482;2023-08-21T08:38:52;8.07;;;2.78;;
46216;SDS011;47258;59.424;13.482;2023-08-21T08:41:24;6.15;;;1.60;;
46216;SDS011;47258;59.424;13.482;2023-08-21T08:44:01;6.95;;;2.63;;
46216;SDS011;47258;59.424;13.482;2023-08-21T08:46:33;7.53;;;2.30;;
46216;SDS011;47258;59.424;13.482;2023-08-21T08:51:32;7.35;;;2.17;;
46216;SDS011;47258;59.424;13.482;2023-08-21T08:54:06;14.30;;;2.53;;
46216;SDS011;47258;59.424;13.482;2023-08-21T08:56:43;7.78;;;1.88;;
46216;SDS011;47258;59.424;13.482;2023-08-21T08:59:16;7.88;;;1.52;;
46216;SDS011;47258;59.424;13.482;2023-08-21T09:01:46;7.95;;;2.20;;
46216;SDS011;47258;59.424;13.482;2023-08-21T09:04:20;9.38;;;2.45;;
46216;SDS011;47258;59.424;13.482;2023-08-21T09:06:51;6.07;;;2.30;;
46216;SDS011;47258;59.424;13.482;2023-08-21T09:09:38;5.18;;;2.58;;
46216;SDS011;47258;59.424;13.482;2023-08-21T09:12:18;8.07;;;2.70;;
46216;SDS011;47258;59.424;13.482;2023-08-21T09:14:52;9.15;;;2.35;;
46216;SDS011;47258;59.424;13.482;2023-08-21T09:17:22;9.98;;;1.98;;
46216;SDS011;47258;59.424;13.482;2023-08-21T09:19:51;10.82;;;2.70;;
46216;SDS011;47258;59.424;13.482;2023-08-21T09:22:22;14.00;;;2.65;;
46216;SDS011;47258;59.424;13.482;2023-08-21T09:25:02;7.30;;;2.17;;
46216;SDS011;47258;59.424;13.482;2023-08-21T09:27:40;6.55;;;2.55;;
46216;SDS011;47258;59.424;13.482;2023-08-21T09:30:15;10.88;;;2.58;;
46216;SDS011;47258;59.424;13.482;2023-08-21T09:32:53;5.93;;;2.40;;
46216;SDS011;47258;59.424;13.482;2023-08-21T09:35:22;6.18;;;2.10;;
46216;SDS011;47258;59.424;13.482;2023-08-21T09:37:57;5.63;;;2.35;;
46216;SDS011;47258;59.424;13.482;2023-08-21T09:40:29;8.68;;;2.83;;
46216;SDS011;47258;59.424;13.482;2023-08-21T09:43:07;10.52;;;2.05;;
46216;SDS011;47258;59.424;13.482;2023-08-21T09:45:41;6.75;;;1.98;;
46216;SDS011;47258;59.424;13.482;2023-08-21T09:48:21;13.13;;;3.10;;
46216;SDS011;47258;59.424;13.482;2023-08-21T09:50:51;4.63;;;1.73;;
46216;SDS011;47258;59.424;13.482;2023-08-21T09:53:22;7.70;;;1.77;;
46216;SDS011;47258;59.424;13.482;2023-08-21T09:55:53;9.45;;;2.38;;
46216;SDS011;47258;59.424;13.482;2023-08-21T09:58:27;7.68;;;2.75;;
46216;SDS011;47258;59.424;13.482;2023-08-21T10:00:59;7.47;;;1.98;;
46216;SDS011;47258;59.424;13.482;2023-08-21T10:05:58;6.93;;;2.20;;
46216;SDS011;47258;59.424;13.482;2023-08-21T10:08:29;9.38;;;2.20;;
46216;SDS011;47258;59.424;13.482;2023-08-21T10:10:58;9.15;;;2.60;;
46216;SDS011;47258;59.424;13.482;2023-08-21T10:13:36;7.97;;;1.65;;
46216;SDS011;47258;59.424;13.482;2023-08-21T10:16:10;11.05;;;2.22;;
46216;SDS011;47258;59.424;13.482;2023-08-21T10:18:44;8.70;;;2.30;;
46216;SDS011;47258;59.424;13.482;2023-08-21T10:21:15;7.07;;;1.60;;
46216;SDS011;47258;59.424;13.482;2023-08-21T10:23:46;10.02;;;2.70;;
46216;SDS011;47258;59.424;13.482;2023-08-21T10:26:18;10.15;;;1.65;;
46216;SDS011;47258;59.424;13.482;2023-08-21T10:28:52;6.57;;;2.88;;
46216;SDS011;47258;59.424;13.482;2023-08-21T10:31:31;6.68;;;1.65;;
46216;SDS011;47258;59.424;13.482;2023-08-21T10:34:01;6.10;;;1.75;;
46216;SDS011;47258;59.424;13.482;2023-08-21T10:36:40;8.52;;;2.03;;
46216;SDS011;47258;59.424;13.482;2023-08-21T10:39:38;7.75;;;1.98;;
46216;SDS011;47258;59.424;13.482;2023-08-21T10:42:21;6.47;;;1.92;;
46216;SDS011;47258;59.424;13.482;2023-08-21T10:45:11;3.47;;;1.30;;
46216;SDS011;47258;59.424;13.482;2023-08-21T10:47:39;5.95;;;1.60;;
46216;SDS011;47258;59.424;13.482;2023-08-21T10:50:09;10.07;;;2.70;;
46216;SDS011;47258;59.424;13.482;2023-08-21T10:52:38;6.55;;;1.88;;
46216;SDS011;47258;59.424;13.482;2023-08-21T10:55:10;9.40;;;1.55;;
46216;SDS011;47258;59.424;13.482;2023-08-21T10:57:45;6.82;;;2.45;;
46216;SDS011;47258;59.424;13.482;2023-08-21T11:00:18;5.80;;;1.73;;
46216;SDS011;47258;59.424;13.482;2023-08-21T11:02:52;7.40;;;1.90;;
46216;SDS011;47258;59.424;13.482;2023-08-21T11:05:20;8.45;;;1.90;;
46216;SDS011;47258;59.424;13.482;2023-08-21T11:07:53;3.72;;;1.70;;
46216;SDS011;47258;59.424;13.482;2023-08-21T11:10:23;5.68;;;1.52;;
46216;SDS011;47258;59.424;13.482;2023-08-21T11:12:56;6.00;;;1.92;;
46216;SDS011;47258;59.424;13.482;2023-08-21T11:17:58;6.82;;;1.33;;
46216;SDS011;47258;59.424;13.482;2023-08-21T11:20:28;5.68;;;1.63;;
46216;SDS011;47258;59.424;13.482;2023-08-21T11:22:58;4.70;;;1.20;;
46216;SDS011;47258;59.424;13.482;2023-08-21T11:25:32;4.53;;;1.30;;
46216;SDS011;47258;59.424;13.482;2023-08-21T11:28:01;6.07;;;2.17;;
46216;SDS011;47258;59.424;13.482;2023-08-21T11:30:31;6.43;;;2.03;;
46216;SDS011;47258;59.424;13.482;2023-08-21T11:33:06;4.18;;;1.30;;
46216;SDS011;47258;59.424;13.482;2023-08-21T11:35:36;4.75;;;1.80;;
46216;SDS011;47258;59.424;13.482;2023-08-21T11:38:14;4.65;;;1.55;;
46216;SDS011;47258;59.424;13.482;2023-08-21T11:40:56;10.15;;;2.03;;
46216;SDS011;47258;59.424;13.482;2023-08-21T11:43:34;4.95;;;2.20;;
46216;SDS011;47258;59.424;13.482;2023-08-21T11:46:06;4.88;;;2.05;;
46216;SDS011;47258;59.424;13.482;2023-08-21T11:48:37;4.78;;;1.60;;
46216;SDS011;47258;59.424;13.482;2023-08-21T11:51:06;1.90;;;1.15;;
46216;SDS011;47258;59.424;13.482;2023-08-21T11:53:37;3.72;;;1.20;;
46216;SDS011;47258;59.424;13.482;2023-08-21T11:56:09;8.15;;;1.67;;
46216;SDS011;47258;59.424;13.482;2023-08-21T11:58:41;5.55;;;1.23;;
46216;SDS011;47258;59.424;13.482;2023-08-21T12:01:12;2.92;;;1.17;;
46216;SDS011;47258;59.424;13.482;2023-08-21T12:03:46;3.78;;;1.50;;
46216;SDS011;47258;59.424;13.482;2023-08-21T12:06:21;7.45;;;1.25;;
46216;SDS011;47258;59.424;13.482;2023-08-21T12:08:51;3.50;;;1.42;;
46216;SDS011;47258;59.424;13.482;2023-08-21T12:11:23;4.50;;;1.30;;
46216;SDS011;47258;59.424;13.482;2023-08-21T12:13:54;7.97;;;1.63;;
46216;SDS011;47258;59.424;13.482;2023-08-21T12:29:53;6.63;;;1.17;;
46216;SDS011;47258;59.424;13.482;2023-08-21T12:32:20;1.33;;;0.75;;
46216;SDS011;47258;59.424;13.482;2023-08-21T12:34:47;3.83;;;1.52;;
46216;SDS011;47258;59.424;13.482;2023-08-21T12:37:14;2.60;;;0.93;;
46216;SDS011;47258;59.424;13.482;2023-08-21T12:39:41;3.25;;;0.93;;
46216;SDS011;47258;59.424;13.482;2023-08-21T12:42:08;2.63;;;0.80;;
46216;SDS011;47258;59.424;13.482;2023-08-21T12:44:35;2.33;;;0.80;;
46216;SDS011;47258;59.424;13.482;2023-08-21T12:47:04;5.30;;;1.27;;
46216;SDS011;47258;59.424;13.482;2023-08-21T12:49:31;3.13;;;0.90;;
46216;SDS011;47258;59.424;13.482;2023-08-21T12:51:58;7.18;;;1.13;;
46216;SDS011;47258;59.424;13.482;2023-08-21T12:54:25;1.05;;;0.60;;
46216;SDS011;47258;59.424;13.482;2023-08-21T12:56:53;5.65;;;1.20;;
46216;SDS011;47258;59.424;13.482;2023-08-21T12:59:21;2.53;;;0.80;;
46216;SDS011;47258;59.424;13.482;2023-08-21T13:01:48;1.80;;;0.75;;
46216;SDS011;47258;59.424;13.482;2023-08-21T13:04:17;2.92;;;0.90;;
46216;SDS011;47258;59.424;13.482;2023-08-21T13:06:44;3.15;;;1.02;;
46216;SDS011;47258;59.424;13.482;2023-08-21T13:09:11;1.95;;;0.90;;
46216;SDS011;47258;59.424;13.482;2023-08-21T13:11:38;4.70;;;0.77;;
46216;SDS011;47258;59.424;13.482;2023-08-21T13:14:05;1.75;;;0.80;;
46216;SDS011;47258;59.424;13.482;2023-08-21T13:16:32;1.58;;;1.05;;
46216;SDS011;47258;59.424;13.482;2023-08-21T13:18:59;4.38;;;0.80;;
46216;SDS011;47258;59.424;13.482;2023-08-21T13:21:28;2.05;;;0.65;;
46216;SDS011;47258;59.424;13.482;2023-08-21T13:23:55;4.75;;;0.90;;
46216;SDS011;47258;59.424;13.482;2023-08-21T13:26:22;1.85;;;1.08;;
46216;SDS011;47258;59.424;13.482;2023-08-21T13:28:50;6.20;;;1.05;;
46216;SDS011;47258;59.424;13.482;2023-08-21T13:31:17;1.67;;;0.63;;
46216;SDS011;47258;59.424;13.482;2023-08-21T13:33:45;2.53;;;0.70;;
46216;SDS011;47258;59.424;13.482;2023-08-21T13:36:12;1.85;;;1.10;;
46216;SDS011;47258;59.424;13.482;2023-08-21T13:38:40;3.80;;;0.88;;
46216;SDS011;47258;59.424;13.482;2023-08-21T13:41:07;2.47;;;0.77;;
46216;SDS011;47258;59.424;13.482;2023-08-21T13:43:35;5.38;;;1.05;;
46216;SDS011;47258;59.424;13.482;2023-08-21T13:46:02;2.42;;;0.93;;
46216;SDS011;47258;59.424;13.482;2023-08-21T13:48:29;1.77;;;1.08;;
46216;SDS011;47258;59.424;13.482;2023-08-21T13:50:56;4.10;;;0.70;;
46216;SDS011;47258;59.424;13.482;2023-08-21T13:53:23;2.40;;;0.80;;
46216;SDS011;47258;59.424;13.482;2023-08-21T13:55:52;4.13;;;1.13;;
46216;SDS011;47258;59.424;13.482;2023-08-21T13:58:19;2.67;;;0.60;;
46216;SDS011;47258;59.424;13.482;2023-08-21T14:00:46;2.88;;;1.05;;
46216;SDS011;47258;59.424;13.482;2023-08-21T14:03:13;2.55;;;0.73;;
46216;SDS011;47258;59.424;13.482;2023-08-21T14:05:40;5.28;;;0.90;;
46216;SDS011;47258;59.424;13.482;2023-08-21T14:08:08;3.03;;;0.70;;
46216;SDS011;47258;59.424;13.482;2023-08-21T14:10:35;3.83;;;1.10;;
46216;SDS011;47258;59.424;13.482;2023-08-21T14:13:03;5.35;;;1.20;;
46216;SDS011;47258;59.424;13.482;2023-08-21T14:15:33;2.55;;;1.02;;
46216;SDS011;47258;59.424;13.482;2023-08-21T14:18:00;5.93;;;1.20;;
46216;SDS011;47258;59.424;13.482;2023-08-21T14:20:27;4.63;;;1.20;;
46216;SDS011;47258;59.424;13.482;2023-08-21T14:22:54;9.23;;;0.90;;
46216;SDS011;47258;59.424;13.482;2023-08-21T14:25:21;1.42;;;1.02;;
46216;SDS011;47258;59.424;13.482;2023-08-21T14:27:49;2.22;;;1.23;;
46216;SDS011;47258;59.424;13.482;2023-08-21T14:30:17;4.38;;;1.00;;
46216;SDS011;47258;59.424;13.482;2023-08-21T14:32:44;3.50;;;0.95;;
46216;SDS011;47258;59.424;13.482;2023-08-21T14:35:11;2.88;;;1.30;;
46216;SDS011;47258;59.424;13.482;2023-08-21T14:37:38;4.88;;;1.08;;
46216;SDS011;47258;59.424;13.482;2023-08-21T14:40:06;4.38;;;0.63;;
46216;SDS011;47258;59.424;13.482;2023-08-21T14:42:34;4.97;;;1.33;;
46216;SDS011;47258;59.424;13.482;2023-08-21T14:45:02;5.05;;;1.80;;
46216;SDS011;47258;59.424;13.482;2023-08-21T14:47:31;7.50;;;1.20;;
46216;SDS011;47258;59.424;13.482;2023-08-21T14:49:58;1.90;;;1.17;;
46216;SDS011;47258;59.424;13.482;2023-08-21T14:52:25;1.55;;;0.90;;
46216;SDS011;47258;59.424;13.482;2023-08-21T14:54:52;2.55;;;1.15;;
46216;SDS011;47258;59.424;13.482;2023-08-21T14:57:19;1.75;;;0.73;;
46216;SDS011;47258;59.424;13.482;2023-08-21T14:59:46;3.13;;;1.17;;
46216;SDS011;47258;59.424;13.482;2023-08-21T15:02:13;2.35;;;1.00;;
46216;SDS011;47258;59.424;13.482;2023-08-21T15:04:42;2.75;;;1.25;;
46216;SDS011;47258;59.424;13.482;2023-08-21T15:07:09;2.90;;;1.00;;
46216;SDS011;47258;59.424;13.482;2023-08-21T15:09:36;2.38;;;0.90;;
46216;SDS011;47258;59.424;13.482;2023-08-21T15:12:03;4.68;;;0.70;;
46216;SDS011;47258;59.424;13.482;2023-08-21T15:14:31;3.55;;;1.13;;
46216;SDS011;47258;59.424;13.482;2023-08-21T15:16:58;3.63;;;1.92;;
46216;SDS011;47258;59.424;13.482;2023-08-21T15:19:25;3.85;;;0.80;;
46216;SDS011;47258;59.424;13.482;2023-08-21T15:21:54;1.73;;;0.90;;
46216;SDS011;47258;59.424;13.482;2023-08-21T15:24:21;1.58;;;1.05;;
46216;SDS011;47258;59.424;13.482;2023-08-21T15:26:48;4.38;;;0.93;;
46216;SDS011;47258;59.424;13.482;2023-08-21T15:29:15;7.63;;;0.95;;
46216;SDS011;47258;59.424;13.482;2023-08-21T15:31:42;2.78;;;0.98;;
46216;SDS011;47258;59.424;13.482;2023-08-21T15:34:09;7.93;;;1.23;;
46216;SDS011;47258;59.424;13.482;2023-08-21T15:36:36;3.08;;;0.70;;
46216;SDS011;47258;59.424;13.482;2023-08-21T15:39:04;4.78;;;1.00;;
46216;SDS011;47258;59.424;13.482;2023-08-21T15:41:31;3.10;;;0.80;;
46216;SDS011;47258;59.424;13.482;2023-08-21T15:43:58;4.93;;;1.33;;
46216;SDS011;47258;59.424;13.482;2023-08-21T15:46:25;2.72;;;1.20;;
46216;SDS011;47258;59.424;13.482;2023-08-21T15:48:53;1.52;;;1.08;;
46216;SDS011;47258;59.424;13.482;2023-08-21T15:51:20;2.58;;;0.77;;
46216;SDS011;47258;59.424;13.482;2023-08-21T15:53:47;1.08;;;0.70;;
46216;SDS011;47258;59.424;13.482;2023-08-21T15:56:15;1.60;;;1.00;;
46216;SDS011;47258;59.424;13.482;2023-08-21T15:58:42;3.60;;;0.68;;
46216;SDS011;47258;59.424;13.482;2023-08-21T16:01:09;2.70;;;0.85;;